createdAt,value
2022-12-25T00:02:22.890Z,69.25
2022-12-25T00:04:49.451Z,69.20
2022-12-25T00:07:16.140Z,68.85
2022-12-25T00:09:42.742Z,68.66
2022-12-25T00:12:09.170Z,68.33
2022-12-25T00:14:35.604Z,67.95
2022-12-25T00:17:02.047Z,70.05
2022-12-25T00:19:28.650Z,70.70
2022-12-25T00:21:55.089Z,69.13
2022-12-25T00:24:21.550Z,69.12
2022-12-25T00:26:48.011Z,67.94
2022-12-25T00:29:14.445Z,67.69
2022-12-25T00:31:41.050Z,68.01
2022-12-25T00:34:08.659Z,67.94
2022-12-25T00:36:41.465Z,69.12
2022-12-25T00:39:08.641Z,68.11
2022-12-25T00:41:53.845Z,68.23
2022-12-25T00:44:20.284Z,67.59
2022-12-25T00:46:46.847Z,67.98
2022-12-25T00:49:13.631Z,67.29
2022-12-25T00:51:40.109Z,67.77
2022-12-25T00:54:06.638Z,67.69
2022-12-25T00:56:33.073Z,67.79
2022-12-25T00:58:59.621Z,67.95
2022-12-25T01:01:26.189Z,68.01
2022-12-25T01:03:52.788Z,67.55
2022-12-25T01:06:19.166Z,67.99
2022-12-25T01:09:04.341Z,68.01
2022-12-25T01:11:30.943Z,67.64
2022-12-25T01:13:57.364Z,67.48
2022-12-25T01:16:23.968Z,67.57
2022-12-25T01:18:50.666Z,67.85
2022-12-25T01:21:18.020Z,67.89
2022-12-25T01:23:44.625Z,67.39
2022-12-25T01:26:12.192Z,67.62
2022-12-25T01:28:39.185Z,68.19
2022-12-25T01:31:08.217Z,68.76
2022-12-25T01:33:34.682Z,68.08
2022-12-25T01:36:01.104Z,68.03
2022-12-25T01:38:27.534Z,67.89
2022-12-25T01:40:53.976Z,67.98
2022-12-25T01:43:20.409Z,67.98
2022-12-25T01:45:48.440Z,67.92
2022-12-25T01:48:17.880Z,67.93
2022-12-25T01:50:51.043Z,67.87
2022-12-25T01:53:17.575Z,67.89
2022-12-25T01:55:45.258Z,68.55
2022-12-25T01:58:11.928Z,69.07
2022-12-25T02:00:38.576Z,68.56
2022-12-25T02:03:05.548Z,68.76
2022-12-25T02:05:34.193Z,68.48
2022-12-25T02:08:02.574Z,68.29
2022-12-25T02:10:28.971Z,68.20
2022-12-25T02:12:55.624Z,67.98
2022-12-25T02:15:25.504Z,67.78
2022-12-25T02:18:05.752Z,68.51
2022-12-25T02:20:43.544Z,68.05
2022-12-25T02:23:18.990Z,67.88
2022-12-25T02:25:48.666Z,67.22
2022-12-25T02:28:37.903Z,66.86
2022-12-25T02:31:10.592Z,68.13
2022-12-25T02:34:01.286Z,68.36
2022-12-25T02:36:29.981Z,69.34
2022-12-25T02:39:17.201Z,69.34
2022-12-25T02:41:46.115Z,68.86
2022-12-25T02:44:33.958Z,67.68
2022-12-25T02:47:21.381Z,68.17
2022-12-25T02:50:07.088Z,68.29
2022-12-25T02:52:52.489Z,68.59
2022-12-25T02:55:40.986Z,69.14
2022-12-25T02:58:28.537Z,68.79
2022-12-25T03:01:23.112Z,68.10
2022-12-25T03:04:09.523Z,67.91
2022-12-25T03:06:43.171Z,67.87
2022-12-25T03:09:31.173Z,67.78
2022-12-25T03:12:01.021Z,67.92
2022-12-25T03:14:46.909Z,67.74
2022-12-25T03:17:13.381Z,68.46
2022-12-25T03:19:58.657Z,68.00
2022-12-25T03:22:48.564Z,67.74
2022-12-25T03:25:34.464Z,67.45
2022-12-25T03:28:01.107Z,68.76
2022-12-25T03:30:48.660Z,67.81
2022-12-25T03:33:44.592Z,67.52
2022-12-25T03:36:28.249Z,70.63
2022-12-25T03:39:19.214Z,72.02
2022-12-25T03:42:06.295Z,72.35
2022-12-25T03:44:53.660Z,71.67
2022-12-25T03:47:37.528Z,71.62
2022-12-25T03:50:34.288Z,70.50
2022-12-25T03:53:21.558Z,69.84
2022-12-25T03:56:07.249Z,68.59
2022-12-25T03:58:52.147Z,69.17
2022-12-25T04:01:37.394Z,69.05
2022-12-25T04:04:22.596Z,69.92
2022-12-25T04:07:07.937Z,69.76
2022-12-25T04:09:53.428Z,69.88
2022-12-25T04:12:38.589Z,68.86
2022-12-25T04:15:23.540Z,68.73
2022-12-25T04:18:10.721Z,68.63
2022-12-25T04:20:55.871Z,69.41
2022-12-25T04:23:41.309Z,68.91
2022-12-25T04:26:26.566Z,68.45
2022-12-25T04:29:11.846Z,68.42
2022-12-25T04:31:57.166Z,67.94
2022-12-25T04:34:42.153Z,68.51
2022-12-25T04:37:08.591Z,68.75
2022-12-25T04:39:35.019Z,68.50
2022-12-25T04:42:01.522Z,68.44
2022-12-25T04:44:28.044Z,69.18
2022-12-25T04:46:54.597Z,68.73
2022-12-25T04:49:21.095Z,67.89
2022-12-25T04:51:47.610Z,67.62
2022-12-25T04:54:14.035Z,68.40
2022-12-25T04:56:45.586Z,67.83
2022-12-25T04:59:12.744Z,68.75
2022-12-25T05:01:39.200Z,68.78
2022-12-25T05:04:05.721Z,68.57
2022-12-25T05:06:32.118Z,67.89
2022-12-25T05:08:58.537Z,69.10
2022-12-25T05:11:24.967Z,68.66
2022-12-25T05:13:51.449Z,69.06
2022-12-25T05:16:19.183Z,68.49
2022-12-25T05:18:47.812Z,67.37
2022-12-25T05:21:14.367Z,67.50
2022-12-25T05:23:48.335Z,67.19
2022-12-25T05:26:16.152Z,68.57
2022-12-25T05:28:42.946Z,68.58
2022-12-25T05:31:09.513Z,69.15
2022-12-25T05:33:36.101Z,68.63
2022-12-25T05:36:06.599Z,68.27
2022-12-25T05:38:33.127Z,67.80
2022-12-25T05:40:59.878Z,68.07
2022-12-25T05:43:26.750Z,68.74
2022-12-25T05:45:53.173Z,68.22
2022-12-25T05:48:19.963Z,68.43
2022-12-25T05:50:46.778Z,68.65
2022-12-25T05:53:14.421Z,67.90
2022-12-25T05:55:46.297Z,68.26
2022-12-25T05:58:13.667Z,68.92
2022-12-25T06:00:40.764Z,67.81
2022-12-25T06:03:07.309Z,67.19
2022-12-25T06:05:33.769Z,68.35
2022-12-25T06:08:00.171Z,68.87
2022-12-25T06:10:26.856Z,68.75
2022-12-25T06:12:54.311Z,68.19
2022-12-25T06:15:20.796Z,68.21
2022-12-25T06:17:47.238Z,68.70
2022-12-25T06:20:13.711Z,68.20
2022-12-25T06:22:40.132Z,68.72
2022-12-25T06:25:06.739Z,68.25
2022-12-25T06:27:33.239Z,69.04
2022-12-25T06:29:59.684Z,69.60
2022-12-25T06:32:26.123Z,68.67
2022-12-25T06:34:52.588Z,69.79
2022-12-25T06:37:19.618Z,69.36
2022-12-25T06:39:46.621Z,69.63
2022-12-25T06:42:13.039Z,68.70
2022-12-25T06:44:39.574Z,68.06
2022-12-25T06:47:05.997Z,68.18
2022-12-25T06:49:32.405Z,67.45
2022-12-25T06:51:58.809Z,68.53
2022-12-25T06:54:25.184Z,68.46
2022-12-25T06:56:51.665Z,68.97
2022-12-25T06:59:18.146Z,68.25
2022-12-25T07:01:46.516Z,67.71
2022-12-25T07:04:18.923Z,68.57
2022-12-25T07:06:45.360Z,68.20
2022-12-25T07:09:11.846Z,68.39
2022-12-25T07:11:40.085Z,68.45
2022-12-25T07:14:06.577Z,67.99
2022-12-25T07:16:33.043Z,68.51
2022-12-25T07:19:01.193Z,68.21
2022-12-25T07:21:27.598Z,68.21
2022-12-25T07:23:54.033Z,68.27
2022-12-25T07:26:20.941Z,68.17
2022-12-25T07:28:47.350Z,68.80
2022-12-25T07:31:15.385Z,68.90
2022-12-25T07:33:45.162Z,69.06
2022-12-25T07:36:12.815Z,68.80
2022-12-25T07:38:40.245Z,69.37
2022-12-25T07:41:13.288Z,68.88
2022-12-25T07:43:40.104Z,68.71
2022-12-25T07:46:06.677Z,68.30
2022-12-25T07:48:33.482Z,68.42
2022-12-25T07:51:00.834Z,68.90
2022-12-25T07:53:27.935Z,69.07
2022-12-25T07:56:01.735Z,68.70
2022-12-25T07:58:28.604Z,69.28
2022-12-25T08:00:55.552Z,69.04
2022-12-25T08:03:22.201Z,67.76
2022-12-25T08:05:52.000Z,69.33
2022-12-25T08:08:18.879Z,68.76
2022-12-25T08:10:46.398Z,67.89
2022-12-25T08:13:14.714Z,67.62
2022-12-25T08:15:42.013Z,67.61
2022-12-25T08:18:08.816Z,67.29
2022-12-25T08:20:35.635Z,68.41
2022-12-25T08:23:02.419Z,68.42
2022-12-25T08:25:29.008Z,67.79
2022-12-25T08:27:55.536Z,67.76
2022-12-25T08:30:22.069Z,67.79
2022-12-25T08:32:48.894Z,67.31
2022-12-25T08:35:15.303Z,68.92
2022-12-25T08:37:41.802Z,70.15
2022-12-25T08:40:08.513Z,71.45
2022-12-25T08:42:34.928Z,72.51
2022-12-25T08:45:01.344Z,73.88
2022-12-25T08:47:27.760Z,74.16
2022-12-25T08:49:54.160Z,74.40
2022-12-25T08:52:20.752Z,74.82
2022-12-25T08:54:47.276Z,75.20
2022-12-25T08:57:13.656Z,75.54
2022-12-25T08:59:40.068Z,75.60
2022-12-25T09:02:06.658Z,75.36
2022-12-25T09:04:33.136Z,75.50
2022-12-25T09:06:59.537Z,75.20
2022-12-25T09:09:27.449Z,75.89
2022-12-25T09:11:53.980Z,75.49
2022-12-25T09:14:20.878Z,75.34
2022-12-25T09:16:49.585Z,75.19
2022-12-25T09:19:16.087Z,74.68
2022-12-25T09:21:42.456Z,74.72
2022-12-25T09:24:08.883Z,74.30
2022-12-25T09:26:35.314Z,74.12
2022-12-25T09:29:01.752Z,73.54
2022-12-25T09:31:28.223Z,74.06
2022-12-25T09:33:56.557Z,73.82
2022-12-25T09:36:23.635Z,74.04
2022-12-25T09:38:50.335Z,73.55
2022-12-25T09:41:20.731Z,73.93
2022-12-25T09:43:49.977Z,73.01
2022-12-25T09:46:21.957Z,73.06
2022-12-25T09:48:57.018Z,72.49
2022-12-25T09:51:23.801Z,72.60
2022-12-25T09:53:53.493Z,72.66
2022-12-25T09:56:25.822Z,72.74
2022-12-25T09:58:52.981Z,72.82
2022-12-25T10:01:24.352Z,72.13
2022-12-25T10:04:11.146Z,72.05
2022-12-25T10:06:40.612Z,70.87
2022-12-25T10:09:13.603Z,71.34
2022-12-25T10:11:58.432Z,69.76
2022-12-25T10:14:43.822Z,70.39
2022-12-25T10:17:22.619Z,70.25
2022-12-25T10:19:49.081Z,70.26
2022-12-25T10:22:34.545Z,70.46
2022-12-25T10:25:02.387Z,69.84
2022-12-25T10:27:31.442Z,70.03
2022-12-25T10:29:58.643Z,70.72
2022-12-25T10:32:25.090Z,69.98
2022-12-25T10:34:51.530Z,69.54
2022-12-25T10:37:17.905Z,69.21
2022-12-25T10:39:46.919Z,69.45
2022-12-25T10:42:35.035Z,69.07
2022-12-25T10:45:03.399Z,68.48
2022-12-25T10:47:33.691Z,67.92
2022-12-25T10:50:02.052Z,68.11
2022-12-25T10:52:29.156Z,68.81
2022-12-25T10:54:56.033Z,67.98
2022-12-25T10:57:23.583Z,68.39
2022-12-25T10:59:51.136Z,67.97
2022-12-25T11:02:23.623Z,67.55
2022-12-25T11:04:51.278Z,67.75
2022-12-25T11:07:17.643Z,67.21
2022-12-25T11:10:04.750Z,67.71
2022-12-25T11:12:35.173Z,67.72
2022-12-25T11:15:07.016Z,67.97
2022-12-25T11:17:35.427Z,68.35
2022-12-25T11:20:02.288Z,69.07
2022-12-25T11:22:29.331Z,68.68
2022-12-25T11:24:55.911Z,68.14
2022-12-25T11:27:26.844Z,67.86
2022-12-25T11:29:56.104Z,67.86
2022-12-25T11:32:25.151Z,68.13
2022-12-25T11:34:53.261Z,67.74
2022-12-25T11:37:38.556Z,67.38
2022-12-25T11:40:08.639Z,67.61
2022-12-25T11:42:37.079Z,67.43
2022-12-25T11:45:03.803Z,67.32
2022-12-25T11:47:33.251Z,67.01
2022-12-25T11:50:02.766Z,66.32
2022-12-25T11:52:31.772Z,66.25
2022-12-25T11:55:03.439Z,65.74
2022-12-25T11:57:31.136Z,66.29
2022-12-25T12:00:10.126Z,65.96
2022-12-25T12:02:44.274Z,66.05
2022-12-25T12:05:17.239Z,65.18
2022-12-25T12:07:50.984Z,64.42
2022-12-25T12:10:40.857Z,64.24
2022-12-25T12:13:18.380Z,64.93
2022-12-25T12:15:46.256Z,64.33
2022-12-25T12:18:28.000Z,64.05
2022-12-25T12:21:07.016Z,63.02
2022-12-25T12:23:49.169Z,63.53
2022-12-25T12:26:22.082Z,63.05
2022-12-25T12:28:49.600Z,62.60
2022-12-25T12:31:16.493Z,63.29
2022-12-25T12:34:03.467Z,62.79
2022-12-25T12:36:35.989Z,62.59
2022-12-25T12:39:03.484Z,62.17
2022-12-25T12:41:45.057Z,63.25
2022-12-25T12:44:12.366Z,62.52
2022-12-25T12:46:40.282Z,62.83
2022-12-25T12:49:09.366Z,62.32
2022-12-25T12:51:36.958Z,60.75
2022-12-25T12:54:18.202Z,60.95
2022-12-25T12:56:57.017Z,62.24
2022-12-25T12:59:24.236Z,60.69
2022-12-25T13:02:07.062Z,60.38
2022-12-25T13:04:50.368Z,61.10
2022-12-25T13:07:27.758Z,60.89
2022-12-25T13:10:02.725Z,60.73
2022-12-25T13:12:29.308Z,60.15
2022-12-25T13:14:55.886Z,60.11
2022-12-25T13:17:24.602Z,59.65
2022-12-25T13:19:54.630Z,59.53
2022-12-25T13:22:30.169Z,59.98
2022-12-25T13:24:57.836Z,60.02
2022-12-25T13:27:25.912Z,59.08
2022-12-25T13:29:53.516Z,59.76
2022-12-25T13:32:28.209Z,59.27
2022-12-25T13:34:54.724Z,59.61
2022-12-25T13:37:23.084Z,59.05
2022-12-25T13:39:54.616Z,59.00
2022-12-25T13:42:22.567Z,58.71
2022-12-25T13:44:54.439Z,59.18
2022-12-25T13:47:31.005Z,58.28
2022-12-25T13:49:59.188Z,58.95
2022-12-25T13:52:33.112Z,58.98
2022-12-25T13:55:01.586Z,58.29
2022-12-25T13:57:30.521Z,58.62
2022-12-25T13:59:57.355Z,58.54
2022-12-25T14:02:27.824Z,58.81
2022-12-25T14:04:54.489Z,59.06
2022-12-25T14:07:24.019Z,58.15
2022-12-25T14:09:54.149Z,58.47
2022-12-25T14:12:21.556Z,59.39
2022-12-25T14:14:49.322Z,59.88
2022-12-25T14:17:15.848Z,59.46
2022-12-25T14:19:42.274Z,59.03
2022-12-25T14:22:18.379Z,59.42
2022-12-25T14:24:44.846Z,59.87
2022-12-25T14:27:22.130Z,59.92
2022-12-25T14:29:49.512Z,59.48
2022-12-25T14:32:22.130Z,59.92
2022-12-25T14:34:51.317Z,60.35
2022-12-25T14:37:20.141Z,60.35
2022-12-25T14:39:54.281Z,59.67
2022-12-25T14:42:22.664Z,59.57
2022-12-25T14:45:04.881Z,59.48
2022-12-25T14:47:35.184Z,58.11
2022-12-25T14:50:01.656Z,58.59
2022-12-25T14:52:37.259Z,58.52
2022-12-25T14:55:05.999Z,58.80
2022-12-25T14:57:38.473Z,59.62
2022-12-25T15:00:05.223Z,59.72
2022-12-25T15:02:37.739Z,58.91
2022-12-25T15:05:04.770Z,58.50
2022-12-25T15:07:31.677Z,59.24
2022-12-25T15:10:27.042Z,59.02
2022-12-25T15:12:44.688Z,59.36
2022-12-25T15:15:11.118Z,59.17
2022-12-25T15:17:38.154Z,59.55
2022-12-25T15:20:05.418Z,59.77
2022-12-25T15:22:54.058Z,59.72
2022-12-25T15:25:20.908Z,59.96
2022-12-25T15:27:47.935Z,60.58
2022-12-25T15:30:17.237Z,58.99
2022-12-25T15:32:43.689Z,59.76
2022-12-25T15:35:18.694Z,60.47
2022-12-25T15:37:45.164Z,60.16
2022-12-25T15:40:12.412Z,60.76
2022-12-25T15:42:39.098Z,60.31
2022-12-25T15:45:06.334Z,60.65
2022-12-25T15:47:32.768Z,60.83
2022-12-25T15:49:59.138Z,60.93
2022-12-25T15:52:25.756Z,60.71
2022-12-25T15:54:54.112Z,60.95
2022-12-25T15:57:21.968Z,60.88
2022-12-25T15:59:48.510Z,60.54
2022-12-25T16:02:16.843Z,60.94
2022-12-25T16:04:43.672Z,61.40
2022-12-25T16:07:19.220Z,61.58
2022-12-25T16:09:45.703Z,61.77
2022-12-25T16:12:12.148Z,61.71
2022-12-25T16:14:38.544Z,61.98
2022-12-25T16:17:05.249Z,62.63
2022-12-25T16:19:31.723Z,62.54
2022-12-25T16:21:58.101Z,62.86
2022-12-25T16:24:24.527Z,62.61
2022-12-25T16:26:50.929Z,63.44
2022-12-25T16:29:17.337Z,62.61
2022-12-25T16:31:43.837Z,63.42
2022-12-25T16:34:10.524Z,62.46
2022-12-25T16:36:36.959Z,63.36
2022-12-25T16:39:04.146Z,63.26
2022-12-25T16:41:30.805Z,63.04
2022-12-25T16:43:57.215Z,63.49
2022-12-25T16:46:23.755Z,63.10
2022-12-25T16:48:50.373Z,63.53
2022-12-25T16:51:20.604Z,63.13
2022-12-25T16:53:47.172Z,63.04
2022-12-25T16:56:14.924Z,63.32
2022-12-25T16:58:42.164Z,63.33
2022-12-25T17:01:13.456Z,63.17
2022-12-25T17:03:39.983Z,63.22
2022-12-25T17:06:16.611Z,63.25
2022-12-25T17:08:43.499Z,63.57
2022-12-25T17:11:09.983Z,63.22
2022-12-25T17:13:36.410Z,63.72
2022-12-25T17:16:16.331Z,63.74
2022-12-25T17:18:42.846Z,63.51
2022-12-25T17:21:09.348Z,63.63
2022-12-25T17:23:39.033Z,63.44
2022-12-25T17:26:06.044Z,63.94
2022-12-25T17:28:33.997Z,63.82
2022-12-25T17:31:03.955Z,63.47
2022-12-25T17:33:30.569Z,63.66
2022-12-25T17:36:03.902Z,63.30
2022-12-25T17:38:31.605Z,63.84
2022-12-25T17:40:58.963Z,63.47
2022-12-25T17:43:26.122Z,63.52
2022-12-25T17:45:52.697Z,63.24
2022-12-25T17:48:19.221Z,63.47
2022-12-25T17:50:45.678Z,63.42
2022-12-25T17:53:12.185Z,63.41
2022-12-25T17:55:40.448Z,63.60
2022-12-25T17:58:07.796Z,63.41
2022-12-25T18:00:34.436Z,63.20
2022-12-25T18:03:11.641Z,62.98
2022-12-25T18:05:38.797Z,62.83
2022-12-25T18:08:05.317Z,62.47
2022-12-25T18:10:37.441Z,62.90
2022-12-25T18:13:04.209Z,62.73
2022-12-25T18:15:30.683Z,62.45
2022-12-25T18:17:57.069Z,62.50
2022-12-25T18:20:23.549Z,62.52
2022-12-25T18:22:52.988Z,62.66
2022-12-25T18:25:19.427Z,63.12
2022-12-25T18:27:45.884Z,62.55
2022-12-25T18:30:12.821Z,62.50
2022-12-25T18:32:39.321Z,62.64
2022-12-25T18:35:05.911Z,62.81
2022-12-25T18:37:39.394Z,61.86
2022-12-25T18:40:09.588Z,62.33
2022-12-25T18:42:39.275Z,61.95
2022-12-25T18:45:06.957Z,61.59
2022-12-25T18:47:33.594Z,62.07
2022-12-25T18:50:00.867Z,62.07
2022-12-25T18:52:49.767Z,61.45
2022-12-25T18:55:13.804Z,62.46
2022-12-25T18:57:40.874Z,62.23
2022-12-25T19:00:07.861Z,62.62
2022-12-25T19:02:34.329Z,62.38
2022-12-25T19:05:00.831Z,62.01
2022-12-25T19:07:27.252Z,62.35
2022-12-25T19:09:53.875Z,62.33
2022-12-25T19:12:20.353Z,62.43
2022-12-25T19:14:48.239Z,62.51
2022-12-25T19:17:15.250Z,62.55
2022-12-25T19:19:41.700Z,62.58
2022-12-25T19:22:08.366Z,62.50
2022-12-25T19:24:35.666Z,62.67
2022-12-25T19:27:02.069Z,62.66
2022-12-25T19:29:28.569Z,62.42
2022-12-25T19:31:55.600Z,62.78
2022-12-25T19:34:22.306Z,62.77
2022-12-25T19:36:48.707Z,62.65
2022-12-25T19:39:15.310Z,62.88
2022-12-25T19:41:41.702Z,62.84
2022-12-25T19:44:08.634Z,62.71
2022-12-25T19:46:36.453Z,62.67
2022-12-25T19:49:04.402Z,62.78
2022-12-25T19:51:33.134Z,62.37
2022-12-25T19:54:00.710Z,62.89
2022-12-25T19:56:30.903Z,63.01
2022-12-25T19:58:57.774Z,62.72
2022-12-25T20:01:25.728Z,62.97
2022-12-25T20:03:52.422Z,62.21
2022-12-25T20:06:22.616Z,62.73
2022-12-25T20:08:50.104Z,62.66
2022-12-25T20:11:17.212Z,62.60
2022-12-25T20:13:43.729Z,62.68
2022-12-25T20:16:10.499Z,62.94
2022-12-25T20:18:37.889Z,62.52
2022-12-25T20:21:06.646Z,62.65
2022-12-25T20:23:36.069Z,62.77
2022-12-25T20:26:04.806Z,62.50
2022-12-25T20:28:32.315Z,62.49
2022-12-25T20:30:58.824Z,62.69
2022-12-25T20:33:25.203Z,62.86
2022-12-25T20:35:51.661Z,63.23
2022-12-25T20:38:18.067Z,62.85
2022-12-25T20:41:24.517Z,63.21
2022-12-25T20:43:31.529Z,62.65
2022-12-25T20:45:58.072Z,62.52
2022-12-25T20:48:24.968Z,63.09
2022-12-25T20:50:51.940Z,62.51
2022-12-25T20:53:18.949Z,63.20
2022-12-25T20:55:49.543Z,63.87
2022-12-25T20:58:16.818Z,63.00
2022-12-25T21:00:44.132Z,63.31
2022-12-25T21:03:10.971Z,63.63
2022-12-25T21:05:49.674Z,63.22
2022-12-25T21:08:17.159Z,63.57
2022-12-25T21:10:45.177Z,63.38
2022-12-25T21:13:11.552Z,63.53
2022-12-25T21:15:42.808Z,63.55
2022-12-25T21:18:09.224Z,63.54
2022-12-25T21:20:35.688Z,63.55
2022-12-25T21:23:02.086Z,63.75
2022-12-25T21:25:28.553Z,63.09
2022-12-25T21:27:54.961Z,62.83
2022-12-25T21:30:21.536Z,63.25
2022-12-25T21:33:06.825Z,63.54
2022-12-25T21:35:35.828Z,63.71
2022-12-25T21:38:02.242Z,62.90
2022-12-25T21:40:31.096Z,63.35
2022-12-25T21:42:57.663Z,63.88
2022-12-25T21:45:24.140Z,63.42
2022-12-25T21:48:01.535Z,63.52
2022-12-25T21:50:47.829Z,62.97
2022-12-25T21:53:16.791Z,62.99
2022-12-25T21:55:43.549Z,62.94
2022-12-25T21:58:10.008Z,63.38
2022-12-25T22:00:36.463Z,63.62
2022-12-25T22:03:02.984Z,63.34
2022-12-25T22:05:48.249Z,62.98
2022-12-25T22:08:14.732Z,62.98
2022-12-25T22:10:41.169Z,62.47
2022-12-25T22:13:27.656Z,63.05
2022-12-25T22:16:20.595Z,63.47
2022-12-25T22:19:05.752Z,63.31
2022-12-25T22:21:32.196Z,63.34
2022-12-25T22:23:58.572Z,63.51
2022-12-25T22:26:24.946Z,62.84
2022-12-25T22:28:51.309Z,63.79
2022-12-25T22:31:17.728Z,65.24
2022-12-25T22:33:44.171Z,65.02
2022-12-25T22:36:10.576Z,65.23
2022-12-25T22:38:36.973Z,65.17
2022-12-25T22:41:06.539Z,65.19
2022-12-25T22:44:14.331Z,65.15
2022-12-25T22:46:19.412Z,64.17
2022-12-25T22:48:45.844Z,65.37
2022-12-25T22:51:12.828Z,64.75
2022-12-25T22:53:39.227Z,64.61
2022-12-25T22:56:08.098Z,64.69
2022-12-25T22:58:35.873Z,64.13
2022-12-25T23:01:02.328Z,64.17
2022-12-25T23:03:29.040Z,64.05
2022-12-25T23:05:56.470Z,63.70
2022-12-25T23:08:24.071Z,64.20
2022-12-25T23:10:50.646Z,64.42
2022-12-25T23:13:36.454Z,64.40
2022-12-25T23:16:03.061Z,63.79
2022-12-25T23:18:48.303Z,63.72
2022-12-25T23:21:33.889Z,63.34
2022-12-25T23:24:19.129Z,63.16
2022-12-25T23:26:45.873Z,63.37
2022-12-25T23:29:31.208Z,64.19
2022-12-25T23:31:58.235Z,64.12
2022-12-25T23:34:25.158Z,63.59
2022-12-25T23:36:51.588Z,64.18
2022-12-25T23:39:17.996Z,63.62
2022-12-25T23:41:44.451Z,62.94
2022-12-25T23:44:11.702Z,63.51
2022-12-25T23:46:38.711Z,63.20
2022-12-25T23:49:05.846Z,63.86
2022-12-25T23:51:32.270Z,63.34
2022-12-25T23:53:58.679Z,63.37
2022-12-25T23:56:25.298Z,63.68
2022-12-25T23:58:51.998Z,64.03
